MASCOMA R @ MASCOMA: From 05/23/2020 05:00 to 06/06/2020 17:00

Date STAGE [FT] FLOW [CFS] LAKE ELEVATION [FT] PRECIPITATION INCREMENT [IN] AIR TEMPERATURE [F]
06/06/2020 09:00 2.44 85.3 749.99 0.00 72.4
06/06/2020 08:00 2.43 84.0 749.99 0.00 65.8
06/06/2020 07:00 2.43 84.0 749.99 0.00 65.7
06/06/2020 06:00 2.42 82.7 749.99 0.00 65.2
06/06/2020 05:00 2.44 85.3 749.99 0.00 64.8
06/06/2020 04:00 2.44 85.3 749.99 0.00 65.5
06/06/2020 03:00 2.44 85.3 749.99 0.00 66.3
06/06/2020 02:00 2.44 85.3 749.99 0.00 67.6
06/06/2020 01:00 2.44 85.3 749.99 0.00 68.4
06/06/2020 00:00 2.44 85.3 749.99 0.00 70.8
06/05/2020 23:00 2.44 85.3 749.99 0.00 72.5
06/05/2020 22:00 2.44 85.3 749.99 0.00 74.6
06/05/2020 21:00 2.44 85.3 749.99 0.00 77.5
06/05/2020 20:00 2.44 85.3 749.99 0.00 81.7
06/05/2020 19:00 2.45 86.7 749.99 0.00 83.9
06/05/2020 18:00 2.44 85.3 749.99 0.00 84.9
06/05/2020 17:00 2.44 85.3 749.99 0.00 84.0
06/05/2020 16:00 2.44 85.3 749.99 0.00 82.2
06/05/2020 15:00 2.46 88.0 749.99 0.00 80.3
06/05/2020 14:00 2.45 86.7 749.99 0.00 80.6
06/05/2020 13:00 2.45 86.7 749.99 0.00 79.8
06/05/2020 12:00 2.45 86.7 749.99 0.00 78.9
06/05/2020 11:00 2.46 88.0 749.99 0.00 69.5
06/05/2020 10:00 2.46 88.0 749.99 0.00 66.8
06/05/2020 09:00 2.46 88.0 749.99 0.00 65.0
06/05/2020 08:00 2.46 88.0 749.99 0.00 63.7
06/05/2020 07:00 2.46 88.0 749.99 0.00 62.8
06/05/2020 06:00 2.46 88.0 749.99 0.00 62.2
06/05/2020 05:00 2.46 88.0 749.99 0.00 61.6
06/05/2020 04:00 2.46 88.0 749.99 0.00 61.2
06/05/2020 03:00 2.46 88.0 749.99 0.00 60.3
06/05/2020 02:00 2.47 89.4 749.98 0.00 60.8
06/05/2020 01:00 2.45 86.7 749.98 0.00 61.7
06/05/2020 00:00 2.46 88.0 749.98 0.00 62.7
06/04/2020 23:00 2.46 88.0 749.98 0.00 64.0
06/04/2020 22:00 2.45 86.7 749.98 0.00 66.3
06/04/2020 21:00 2.46 88.0 749.98 0.00 72.2
06/04/2020 20:00 2.46 88.0 749.98 0.00 77.8
06/04/2020 19:00 2.43 84.0 749.98 0.00 81.5
06/04/2020 18:00 2.44 85.3 749.98 0.00 81.7
06/04/2020 17:00 2.45 86.7 749.98 0.00 81.8
06/04/2020 16:00 2.45 86.7 749.98 0.00 80.9
06/04/2020 15:00 2.44 85.3 749.97 0.00 80.1
06/04/2020 14:00 2.44 85.3 749.98 0.00 78.4
06/04/2020 13:00 2.43 84.0 749.98 0.00 76.3
06/04/2020 12:00 2.43 84.0 749.97 0.00 75.7
06/04/2020 11:00 2.43 84.0 749.97 0.00 74.2
06/04/2020 10:00 2.43 84.0 749.97 0.00 70.4
06/04/2020 09:00 2.45 86.7 749.98 0.00 65.4
06/04/2020 08:00 2.44 85.3 749.98 0.00 59.7
06/04/2020 07:00 2.44 85.3 749.98 0.00 51.8
06/04/2020 06:00 2.46 88.0 749.98 0.00 51.1
06/04/2020 05:00 2.45 86.7 749.98 0.00 51.8
06/04/2020 04:00 2.44 85.3 749.98 0.00 52.8
06/04/2020 03:00 2.45 86.7 749.98 0.00 53.5
06/04/2020 02:00 2.46 88.0 749.98 0.00 53.6
06/04/2020 01:00 2.44 85.3 749.98 0.00 54.6
06/04/2020 00:00 2.45 86.7 749.98 0.00 56.1
06/03/2020 23:00 2.46 88.0 749.98 0.00 57.7
06/03/2020 22:00 2.46 88.0 749.98 0.00 59.4
06/03/2020 21:00 2.44 85.3 749.98 0.00 63.5
06/03/2020 20:00 2.43 84.0 749.98 0.03 65.1
06/03/2020 19:00 2.44 85.3 749.97 0.00 68.3
06/03/2020 18:00 2.43 84.0 749.98 0.00 71.9
06/03/2020 17:00 2.42 82.7 749.98 0.00 71.5
06/03/2020 16:00 2.45 86.7 749.98 0.00 71.3
06/03/2020 15:00 2.44 85.3 749.98 0.00 72.7
06/03/2020 14:00 2.44 85.3 749.98 0.00 69.3
06/03/2020 13:00 2.42 82.7 749.97 0.00 68.8
06/03/2020 12:00 2.45 86.7 749.98 0.00 69.3
06/03/2020 11:00 2.45 86.7 749.98 0.00 64.5
06/03/2020 10:00 2.45 86.7 749.98 0.00 60.0
06/03/2020 09:00 2.45 86.7 749.98 0.00 56.6
06/03/2020 08:00 2.47 89.4 749.98 0.00 55.2
06/03/2020 07:00 2.46 88.0 749.98 0.00 54.5
06/03/2020 06:00 2.46 88.0 749.98 0.00 54.5
06/03/2020 05:00 2.46 88.0 749.99 0.00 54.4
06/03/2020 04:00 2.47 89.4 749.99 0.00 54.4
06/03/2020 03:00 2.47 89.4 749.98 0.00 54.2
06/03/2020 02:00 2.46 88.0 749.99 0.00 54.5
06/03/2020 01:00 2.47 89.4 749.99 0.00 54.4
06/03/2020 00:00 2.48 90.7 749.99 0.00 55.6
06/02/2020 23:00 2.47 89.4 749.99 0.00 56.3
06/02/2020 22:00 2.48 90.7 749.99 0.00 57.5
06/02/2020 21:00 2.49 92.1 749.99 0.00 59.8
06/02/2020 20:00 2.48 90.7 749.99 0.00 61.9
06/02/2020 19:00 2.49 92.1 749.99 0.00 64.0
06/02/2020 18:00 2.49 92.1 749.99 0.00 65.1
06/02/2020 17:00 2.49 92.1 749.99 0.00 66.6
06/02/2020 16:00 2.50 93.5 749.99 0.00 66.5
06/02/2020 15:00 2.50 93.5 750.00 0.00 66.4
06/02/2020 14:00 2.50 93.5 750.00 0.00 61.7
06/02/2020 13:00 2.50 93.5 749.99 0.00 59.8
06/02/2020 12:00 2.50 93.5 750.00 0.00 51.7
06/02/2020 11:00 2.52 96.9 750.00 0.00 51.7
06/02/2020 10:00 2.52 96.9 750.00 0.00 47.0
06/02/2020 09:00 2.52 96.9 750.00 0.00 44.6
06/02/2020 08:00 2.51 95.2 750.00 0.00 40.7
06/02/2020 07:00 2.53 98.6 750.01 0.00 41.2
06/02/2020 06:00 2.54 100.3 750.01 0.00 41.3
06/02/2020 05:00 2.55 102.0 750.01 0.00 39.7
06/02/2020 04:00 2.56 103.8 750.01 0.00 39.3
06/02/2020 03:00 2.55 102.0 750.01 0.00 40.6
06/02/2020 02:00 2.55 102.0 750.02 0.00 41.5
06/02/2020 01:00 2.56 103.8 750.02 0.00 42.7
06/02/2020 00:00 2.57 105.6 750.02 0.00 44.0
06/01/2020 23:00 2.57 105.6 750.02 0.00 45.1
06/01/2020 22:00 2.56 103.8 750.02 0.00 47.8
06/01/2020 21:00 2.55 102.0 750.02 0.00 50.3
06/01/2020 20:00 2.54 100.3 750.01 0.00 53.6
06/01/2020 19:00 2.55 102.0 750.01 0.00 55.5
06/01/2020 18:00 2.54 100.3 750.02 0.00 57.8
06/01/2020 17:00 2.55 102.0 750.02 0.00 59.7
06/01/2020 16:00 2.57 105.6 750.02 0.00 60.8
06/01/2020 15:00 2.56 103.8 750.02 0.00 59.5
06/01/2020 14:00 2.57 105.6 750.03 0.00 59.2
06/01/2020 13:00 2.59 109.2 750.03 0.00 55.4
06/01/2020 12:00 2.59 109.2 750.03 0.00 53.9
06/01/2020 11:00 2.58 107.4 750.03 0.00 51.4
06/01/2020 10:00 2.60 111.0 750.04 0.00 52.9
06/01/2020 09:00 2.61 112.9 750.04 0.00 50.4
06/01/2020 08:00 2.60 111.0 750.03 0.00 46.1
06/01/2020 07:00 2.60 111.0 750.04 0.00 39.6
06/01/2020 06:00 2.62 114.8 750.05 0.00 37.3
06/01/2020 05:00 2.62 114.8 750.04 0.00 37.9
06/01/2020 04:00 2.63 116.8 750.05 0.00 40.2
06/01/2020 03:00 2.64 118.8 750.05 0.00 40.5
06/01/2020 02:00 2.65 120.8 750.06 0.00 39.9
06/01/2020 01:00 2.65 120.8 750.06 0.00 38.8
06/01/2020 00:00 2.64 118.8 750.06 0.00 39.8
05/31/2020 23:00 2.65 120.8 750.06 0.00 41.3
05/31/2020 22:00 2.64 118.8 750.05 0.00 43.6
05/31/2020 21:00 2.65 120.8 750.05 0.00 47.8
05/31/2020 20:00 2.64 118.8 750.05 0.00 50.2
05/31/2020 19:00 2.64 118.8 750.06 0.00 51.7
05/31/2020 18:00 2.63 116.8 750.05 0.00 54.4
05/31/2020 17:00 2.63 116.8 750.06 0.00 55.2
05/31/2020 16:00 2.64 118.8 750.06 0.00 57.2
05/31/2020 15:00 2.67 124.8 750.06 0.00 57.2
05/31/2020 14:00 2.67 124.8 750.06 0.00 56.2
05/31/2020 13:00 2.66 122.8 750.06 0.00 56.7
05/31/2020 12:00 2.67 124.8 750.06 0.00 57.0
05/31/2020 11:00 2.64 118.8 750.06 0.00 55.1
05/31/2020 10:00 2.64 118.8 750.06 0.00 54.8
05/31/2020 09:00 2.67 124.8 750.07 0.00 55.2
05/31/2020 08:00 2.67 124.8 750.08 0.00 50.9
05/31/2020 07:00 2.65 120.8 750.07 0.00 47.6
05/31/2020 06:00 2.64 118.8 750.06 0.00 48.9
05/31/2020 05:00 2.63 116.8 750.07 0.00 51.3
05/31/2020 04:00 2.59 109.2 750.07 0.00 55.7
05/31/2020 03:00 2.59 109.2 750.08 0.00 58.1
05/31/2020 02:00 2.63 116.8 750.08 0.00 60.9
05/31/2020 01:00 2.64 118.8 750.09 0.00 61.3
05/31/2020 00:00 2.64 118.8 750.09 0.00 62.1
05/30/2020 23:00 2.67 124.8 750.09 0.00 62.7
05/30/2020 22:00 2.65 120.8 750.09 0.00 62.4
05/30/2020 21:00 2.65 120.8 750.09 0.00 65.2
05/30/2020 20:00 2.65 120.8 750.09 0.00 71.1
05/30/2020 19:00 2.63 116.8 750.08 0.00 69.4
05/30/2020 18:00 2.64 118.8 750.08 0.00 71.7
05/30/2020 17:00 2.62 114.8 750.08 0.00 74.5
05/30/2020 16:00 2.60 111.0 750.07 0.00 74.8
05/30/2020 15:00 2.63 116.8 750.07 0.00 73.7
05/30/2020 14:00 2.61 112.9 750.07 0.00 72.2
05/30/2020 13:00 2.59 109.2 750.06 0.00 72.6
05/30/2020 12:00 2.60 111.0 750.07 0.00 67.8
05/30/2020 11:00 2.57 105.6 750.06 0.00 72.4
05/30/2020 10:00 2.58 107.4 750.07 0.00 69.0
05/30/2020 09:00 2.57 105.6 750.06 0.00 67.9
05/30/2020 08:00 2.59 109.2 750.07 0.00 66.9
05/30/2020 07:00 2.58 107.4 750.07 0.00 65.5
05/30/2020 06:00 2.56 103.8 750.07 0.01 66.3
05/30/2020 05:00 2.58 107.4 750.07 0.00 67.1
05/30/2020 04:00 2.61 112.9 750.07 0.00 66.3
05/30/2020 03:00 2.59 109.2 750.07 0.00 65.9
05/30/2020 02:00 2.58 107.4 750.08 0.05 66.9
05/30/2020 01:00 2.58 107.4 750.06 0.04 67.2
05/30/2020 00:00 2.54 100.3 750.06 0.02 66.6
05/29/2020 23:00 2.54 100.3 750.04 0.15 66.8
05/29/2020 22:00 2.50 93.5 750.04 0.24 68.1
05/29/2020 21:00 2.49 92.1 750.03 0.00 78.4
05/29/2020 20:00 2.47 89.4 750.03 0.00 81.4
05/29/2020 19:00 2.48 90.7 750.03 0.00 84.2
05/29/2020 18:00 2.49 92.1 750.03 0.00 85.4
05/29/2020 17:00 2.47 89.4 750.03 0.00 86.2
05/29/2020 16:00 2.50 93.5 750.03 0.00 85.5
05/29/2020 15:00 2.49 92.1 750.03 0.00 85.0
05/29/2020 14:00 2.48 90.7 750.03 0.00 81.4
05/29/2020 13:00 2.47 89.4 750.02 0.00 84.3
05/29/2020 12:00 2.48 90.7 750.02 0.00 81.4
05/29/2020 11:00 2.48 90.7 750.02 0.00 80.5
05/29/2020 10:00 2.49 92.1 750.02 0.00 78.9
05/29/2020 09:00 2.47 89.4 750.02 0.00 79.3
05/29/2020 08:00 2.47 89.4 750.02 0.00 75.3
05/29/2020 07:00 2.48 90.7 750.02 0.00 71.6
05/29/2020 06:00 2.47 89.4 750.01 0.00 70.4
05/29/2020 05:00 2.47 89.4 749.98 0.00 70.9
05/29/2020 04:00 2.47 89.4 750.01 0.00 71.6
05/29/2020 03:00 2.46 88.0 750.01 0.00 71.6
05/29/2020 02:00 2.46 88.0 750.01 0.00 72.1
05/29/2020 01:00 2.46 88.0 750.01 0.00 72.1
05/29/2020 00:00 2.47 89.4 750.01 0.00 72.4
05/28/2020 23:00 2.47 89.4 750.01 0.00 72.4
05/28/2020 22:00 2.45 86.7 750.01 0.00 73.6
05/28/2020 21:00 2.45 86.7 750.01 0.00 74.9
05/28/2020 20:00 2.45 86.7 750.01 0.00 77.4
05/28/2020 19:00 2.44 85.3 750.01 0.00 81.8
05/28/2020 18:00 2.44 85.3 750.00 0.00 81.0
05/28/2020 17:00 2.46 88.0 750.00 0.00 81.5
05/28/2020 16:00 2.44 85.3 750.00 0.00 82.5
05/28/2020 15:00 2.43 84.0 750.00 0.00 81.8
05/28/2020 14:00 2.45 86.7 750.00 0.00 81.3
05/28/2020 13:00 2.44 85.3 749.99 0.00 80.1
05/28/2020 12:00 2.44 85.3 749.99 0.00 79.4
05/28/2020 11:00 2.44 85.3 749.99 0.00 78.4
05/28/2020 10:00 2.43 84.0 749.99 0.00 76.3
05/28/2020 09:00 2.42 82.7 749.98 0.00 72.0
05/28/2020 08:00 2.40 80.1 749.98 0.00 68.3
05/28/2020 07:00 2.42 82.7 749.98 0.00 65.2
05/28/2020 06:00 2.41 81.4 749.98 0.00 65.1
05/28/2020 05:00 2.40 80.1 749.97 0.00 66.4
05/28/2020 04:00 2.39 78.8 749.97 0.00 66.7
05/28/2020 03:00 2.40 80.1 749.97 0.00 68.9
05/28/2020 02:00 2.39 78.8 749.96 0.00 69.9
05/28/2020 01:00 2.38 77.5 749.96 0.00 71.4
05/28/2020 00:00 2.38 77.5 749.95 0.00 73.4
05/27/2020 23:00 2.37 76.3 749.95 0.00 73.7
05/27/2020 22:00 2.37 76.3 749.95 0.00 74.1
05/27/2020 21:00 2.36 75.0 749.95 0.00 80.0
05/27/2020 20:00 2.33 71.3 749.94 0.00 86.6
05/27/2020 19:00 2.33 71.3 749.94 0.00 90.2
05/27/2020 18:00 2.34 72.5 749.93 0.00 91.6
05/27/2020 17:00 2.37 76.3 749.93 0.00 89.2
05/27/2020 16:00 2.39 78.8 749.93 0.00 89.3
05/27/2020 15:00 2.39 78.8 749.92 0.00 90.8
05/27/2020 14:00 2.43 84.0 749.92 0.00 90.4
05/27/2020 13:00 2.56 103.8 749.92 0.00 85.0
05/27/2020 12:00 2.65 120.8 749.92 0.00 80.5
05/27/2020 11:00 2.65 120.8 749.92 0.00 76.4
05/27/2020 10:00 2.67 124.8 749.92 0.00 70.1
05/27/2020 09:00 2.67 124.8 749.92 0.00 68.0
05/27/2020 08:00 2.67 124.8 749.92 0.00 65.3
05/27/2020 07:00 2.67 124.8 749.92 0.00 62.7
05/27/2020 06:00 2.67 124.8 749.92 0.00 61.3
05/27/2020 05:00 2.67 124.8 749.92 0.00 61.6
05/27/2020 04:00 2.67 124.8 749.92 0.00 62.0
05/27/2020 03:00 2.68 126.8 749.92 0.00 62.7
05/27/2020 02:00 2.68 126.8 749.92 0.00 63.7
05/27/2020 01:00 2.68 126.8 749.92 0.00 64.5
05/27/2020 00:00 2.67 124.8 749.92 0.00 65.4
05/26/2020 23:00 2.67 124.8 749.92 0.00 66.9
05/26/2020 22:00 2.67 124.8 749.92 0.00 69.2
05/26/2020 21:00 2.67 124.8 749.92 0.00 74.6
05/26/2020 20:00 2.67 124.8 749.92 0.00 82.8
05/26/2020 19:00 2.67 124.8 749.92 0.00 85.1
05/26/2020 18:00 2.67 124.8 749.92 0.00 90.3
05/26/2020 17:00 2.67 124.8 749.92 0.00 86.5
05/26/2020 16:00 2.67 124.8 749.92 0.00 86.1
05/26/2020 15:00 2.68 126.8 749.92 0.00 82.2
05/26/2020 14:00 2.68 126.8 749.92 0.00 77.6
05/26/2020 13:00 2.69 128.9 749.93 0.00 77.5
05/26/2020 12:00 2.69 128.9 749.93 0.00 75.1
05/26/2020 11:00 2.69 128.9 749.93 0.00 68.6
05/26/2020 10:00 2.69 128.9 749.93 0.00 63.8
05/26/2020 09:00 2.70 131.0 749.93 0.00 62.0
05/26/2020 08:00 2.70 131.0 749.93 0.00 60.0
05/26/2020 07:00 2.70 131.0 749.93 0.00 59.0
05/26/2020 06:00 2.70 131.0 749.94 0.00 58.4
05/26/2020 05:00 2.70 131.0 749.94 0.00 57.7
05/26/2020 04:00 2.70 131.0 749.94 0.00 57.0
05/26/2020 03:00 2.70 131.0 749.94 0.00 59.1
05/26/2020 02:00 2.71 133.3 749.94 0.00 59.7
05/26/2020 01:00 2.72 135.6 749.94 0.00 59.4
05/26/2020 00:00 2.71 133.3 749.94 0.00 61.0
05/25/2020 23:00 2.71 133.3 749.95 0.00 62.6
05/25/2020 22:00 2.72 135.6 749.95 0.00 63.3
05/25/2020 21:00 2.72 135.6 749.95 0.00 63.7
05/25/2020 20:00 2.72 135.6 749.96 0.00 63.7
05/25/2020 19:00 2.75 142.7 749.97 0.00 63.4
05/25/2020 18:00 2.76 145.1 749.97 0.00 64.7
05/25/2020 17:00 2.75 142.7 749.97 0.00 65.4
05/25/2020 16:00 2.75 142.7 749.97 0.00 66.1
05/25/2020 15:00 2.75 142.7 749.97 0.00 67.0
05/25/2020 14:00 2.75 142.7 749.97 0.00 64.1
05/25/2020 13:00 2.75 142.7 749.97 0.00 62.1
05/25/2020 12:00 2.76 145.1 749.97 0.00 62.2
05/25/2020 11:00 2.75 142.7 749.97 0.00 59.0
05/25/2020 10:00 2.75 142.7 749.97 0.00 51.7
05/25/2020 09:00 2.75 142.7 749.97 0.00 47.8
05/25/2020 08:00 2.76 145.1 749.97 0.00 46.4
05/25/2020 07:00 2.76 145.1 749.97 0.00 44.6
05/25/2020 06:00 2.76 145.1 749.97 0.00 44.7
05/25/2020 05:00 2.77 147.5 749.98 0.00 45.6
05/25/2020 04:00 2.76 145.1 749.98 0.00 47.1
05/25/2020 03:00 2.76 145.1 749.98 0.00 47.8
05/25/2020 02:00 2.76 145.1 749.98 0.00 49.1
05/25/2020 01:00 2.78 150.0 749.99 0.00 50.7
05/25/2020 00:00 2.79 152.5 749.99 0.00 52.9
05/24/2020 23:00 2.81 157.4 750.00 0.00 55.5
05/24/2020 22:00 2.85 167.2 750.01 0.00 59.2
05/24/2020 21:00 2.82 159.8 750.00 0.00 63.7
05/24/2020 20:00 2.81 157.4 750.00 0.00 66.4
05/24/2020 19:00 2.81 157.4 750.00 0.00 67.0
05/24/2020 18:00 2.82 159.8 750.00 0.00 67.1
05/24/2020 17:00 2.81 157.4 750.00 0.00 67.5
05/24/2020 16:00 2.81 157.4 750.00 0.00 66.1
05/24/2020 15:00 2.82 159.8 750.01 0.00 64.6
05/24/2020 14:00 2.84 164.7 750.01 0.00 62.8
05/24/2020 13:00 2.84 164.7 750.01 0.00 61.1
05/24/2020 12:00 2.84 164.7 750.01 0.00 58.5
05/24/2020 11:00 2.85 167.2 750.01 0.00 56.2
05/24/2020 10:00 2.84 164.7 750.01 0.00 54.0
05/24/2020 09:00 2.84 164.7 750.01 0.00 49.5
05/24/2020 08:00 2.84 164.7 750.01 0.00 45.2
05/24/2020 07:00 2.83 162.3 750.01 0.00 45.0
05/24/2020 06:00 2.84 164.7 750.02 0.00 41.6
05/24/2020 05:00 2.84 164.7 750.02 0.00 42.5
05/24/2020 04:00 2.84 164.7 750.02 0.00 44.6
05/24/2020 03:00 2.85 167.2 750.02 0.00 46.7
05/24/2020 02:00 2.86 169.7 750.03 0.00 48.0
05/24/2020 01:00 2.88 174.8 750.04 0.00 49.4
05/24/2020 00:00 2.90 180.0 750.05 0.00 51.5
05/23/2020 23:00 2.92 184.6 750.05 0.00 54.3
05/23/2020 22:00 2.94 190.1 750.06 0.00 57.0
05/23/2020 21:00 2.95 193.2 750.06 0.00 60.7
05/23/2020 20:00 2.96 196.6 750.06 0.00 63.6
05/23/2020 19:00 2.95 193.2 750.06 0.00 66.1
05/23/2020 18:00 2.95 193.2 750.06 0.00 68.7
05/23/2020 17:00 2.93 187.2 750.06 0.00 73.3
05/23/2020 16:00 2.91 182.2 750.06 0.00 73.2
05/23/2020 15:00 2.89 177.4 750.05 0.00 73.3
05/23/2020 14:00 2.91 182.2 750.05 0.00 71.8
05/23/2020 13:00 2.92 184.6 750.05 0.00 70.9
05/23/2020 12:00 2.95 193.2 750.06 0.00 68.3
05/23/2020 11:00 -- -- -- -- --
05/23/2020 10:00 -- -- -- -- --
05/23/2020 09:00 -- -- -- -- --
05/23/2020 08:00 -- -- -- -- --
05/23/2020 07:00 -- -- -- -- --
05/23/2020 06:00 -- -- -- -- --
05/23/2020 05:00 -- -- -- -- --